Forside
METAR-TAF:

METAR-TAF

Lufthavne :

Brest, Hviderusland

Breddekreds: 52-06-30N, længdekreds: 023-53-48E, højde: 143 m

Aktuelle vejr

Denne rapport blev lavet for 1 time og 6 minutter siden, kl. 09:00 UTC
Vind 6 kt fra østsydøst
Temperatur 24°C
Fugtighed 31%
Tryk 1023 hPa
Sigt: 8000 m

METAR: UMBB 260900Z 12003MPS 8000 NSC 24/06 Q1023 NOSIG

Tid: 13:06 (10:06 UTC)

Vejrudsigter

Denne rapport blev lavet for 2 timer og 6 minutter siden, kl. 08:00 UTC
Foreløbig gælder fra 26 på 09 UTC til 26 på 18 UTC
Vind 6 kt fra østsydøst
Sigt 10 km eller mere
Brudte skyer i en højde af 2000 ft
Midlertidig
fra 26 på 09 UTC til 26 på 12 UTC
Vind 8 kt fra sydøst med vindstød på up til 17 kt

TAF: UMBB 260800Z 2609/2618 12003MPS 9999 BKN020 TX25/2612Z TN23/2609Z TEMPO 2609/2612 13004G09MPS

Vejrobservationer og prognoser fra mere end 4000 lufthavne (METAR og TAF).

De gule og røde prikker repræsenterer de meteorologiske stationer.

Flyt musen over at se navnet på stationen.

Så klik over at se vejr observationer og prognoser.

At skifte det kort: Klik på de grønne knapper med et sort kors for at zoome ind; på den grønne knap med en bindestreg for at zoome ud; eller på de grønne pile for tilstødende kort.


METAR-TAF: